createdAt,value
2022-10-24T00:01:19.110Z,4.93
2022-10-24T00:03:45.744Z,3.90
2022-10-24T00:06:12.893Z,4.20
2022-10-24T00:08:40.600Z,3.97
2022-10-24T00:11:23.165Z,4.18
2022-10-24T00:13:50.985Z,4.13
2022-10-24T00:16:18.245Z,3.83
2022-10-24T00:18:45.541Z,3.80
2022-10-24T00:21:12.539Z,3.72
2022-10-24T00:23:39.257Z,3.67
2022-10-24T00:26:07.638Z,3.30
2022-10-24T00:28:36.011Z,3.13
2022-10-24T00:31:04.039Z,3.88
2022-10-24T00:33:31.157Z,3.10
2022-10-24T00:35:57.757Z,3.00
2022-10-24T00:38:24.568Z,3.47
2022-10-24T00:40:51.168Z,3.00
2022-10-24T00:43:21.666Z,2.92
2022-10-24T00:45:59.143Z,2.75
2022-10-24T00:48:40.263Z,2.72
2022-10-24T00:51:28.647Z,2.45
2022-10-24T00:54:08.528Z,2.90
2022-10-24T00:56:39.217Z,2.92
2022-10-24T00:59:08.453Z,1.98
2022-10-24T01:01:35.882Z,2.22
2022-10-24T01:04:02.590Z,4.25
2022-10-24T01:06:55.291Z,2.90
2022-10-24T01:09:38.001Z,2.17
2022-10-24T01:12:31.399Z,2.42
2022-10-24T01:15:14.919Z,2.38
2022-10-24T01:18:02.773Z,2.47
2022-10-24T01:20:47.747Z,2.55
2022-10-24T01:23:47.675Z,2.40
2022-10-24T01:26:20.440Z,2.45
2022-10-24T01:29:24.631Z,2.22
2022-10-24T01:31:53.402Z,2.35
2022-10-24T01:34:44.556Z,2.85
2022-10-24T01:37:21.577Z,2.67
2022-10-24T01:39:53.134Z,2.67
2022-10-24T01:42:23.888Z,2.42
2022-10-24T01:44:54.324Z,2.40
2022-10-24T01:47:37.341Z,2.30
2022-10-24T01:50:08.872Z,2.25
2022-10-24T01:52:39.860Z,2.53
2022-10-24T01:55:07.179Z,2.60
2022-10-24T01:57:35.016Z,2.47
2022-10-24T02:00:04.212Z,2.28
2022-10-24T02:02:36.338Z,2.45
2022-10-24T02:05:11.028Z,2.42
2022-10-24T02:10:19.309Z,2.60
2022-10-24T02:12:52.220Z,2.10
2022-10-24T02:15:26.428Z,2.28
2022-10-24T02:17:54.424Z,2.17
2022-10-24T02:20:28.409Z,2.33
2022-10-24T02:23:05.348Z,2.30
2022-10-24T02:25:36.371Z,2.03
2022-10-24T02:28:15.320Z,2.20
2022-10-24T02:30:48.531Z,2.15
2022-10-24T02:33:16.616Z,3.38
2022-10-24T02:35:45.870Z,2.22
2022-10-24T02:38:19.681Z,1.80
2022-10-24T02:40:48.603Z,2.03
2022-10-24T02:43:17.476Z,2.13
2022-10-24T02:45:45.023Z,1.90
2022-10-24T02:48:13.851Z,1.92
2022-10-24T02:50:42.033Z,2.30
2022-10-24T02:53:12.790Z,2.33
2022-10-24T02:55:39.399Z,1.58
2022-10-24T02:58:06.027Z,1.73
2022-10-24T03:00:33.091Z,1.60
2022-10-24T03:02:59.682Z,2.28
2022-10-24T03:05:26.244Z,2.10
2022-10-24T03:07:56.988Z,1.92
2022-10-24T03:10:23.616Z,2.10
2022-10-24T03:12:51.400Z,1.67
2022-10-24T03:15:18.155Z,1.73
2022-10-24T03:17:44.963Z,1.40
2022-10-24T03:20:11.875Z,1.60
2022-10-24T03:22:38.449Z,1.83
2022-10-24T03:25:06.254Z,1.65
2022-10-24T03:27:34.052Z,1.45
2022-10-24T03:30:07.663Z,1.50
2022-10-24T03:32:34.645Z,1.45
2022-10-24T03:35:01.749Z,1.67
2022-10-24T03:37:28.560Z,1.63
2022-10-24T03:39:55.205Z,1.15
2022-10-24T03:42:22.153Z,1.65
2022-10-24T03:44:48.756Z,1.92
2022-10-24T03:47:16.411Z,1.63
2022-10-24T03:49:42.998Z,1.38
2022-10-24T03:52:10.091Z,1.67
2022-10-24T03:54:36.825Z,1.40
2022-10-24T03:57:03.548Z,1.23
2022-10-24T03:59:30.447Z,1.52
2022-10-24T04:02:01.221Z,1.40
2022-10-24T04:04:27.912Z,1.63
2022-10-24T04:06:54.833Z,1.35
2022-10-24T04:09:22.094Z,1.10
2022-10-24T04:11:49.265Z,1.30
2022-10-24T04:14:15.875Z,1.40
2022-10-24T04:16:42.516Z,1.70
2022-10-24T04:19:10.531Z,1.80
2022-10-24T04:21:43.863Z,1.13
2022-10-24T04:24:11.533Z,1.60
2022-10-24T04:26:38.418Z,1.67
2022-10-24T04:29:05.418Z,1.67
2022-10-24T04:31:32.555Z,1.13
2022-10-24T04:33:59.328Z,1.13
2022-10-24T04:36:25.972Z,1.90
2022-10-24T04:38:52.658Z,1.50
2022-10-24T04:41:19.331Z,1.45
2022-10-24T04:43:45.888Z,1.05
2022-10-24T04:46:13.684Z,1.50
2022-10-24T04:48:40.269Z,1.30
2022-10-24T04:51:06.938Z,0.93
2022-10-24T04:53:33.527Z,1.58
2022-10-24T04:56:00.131Z,1.33
2022-10-24T04:58:27.026Z,1.23
2022-10-24T05:00:53.646Z,1.20
2022-10-24T05:03:21.134Z,0.90
2022-10-24T05:05:48.157Z,2.95
2022-10-24T05:08:15.110Z,1.10
2022-10-24T05:10:42.271Z,1.10
2022-10-24T05:13:09.584Z,1.70
2022-10-24T05:15:36.565Z,1.75
2022-10-24T05:18:03.301Z,1.48
2022-10-24T05:20:30.216Z,1.70
2022-10-24T05:22:56.833Z,1.30
2022-10-24T05:25:23.699Z,1.13
2022-10-24T05:27:50.310Z,2.85
2022-10-24T05:30:17.202Z,1.30
2022-10-24T05:32:44.290Z,1.48
2022-10-24T05:35:11.120Z,1.30
2022-10-24T05:37:39.065Z,1.50
2022-10-24T05:40:08.381Z,1.20
2022-10-24T05:42:36.273Z,1.40
2022-10-24T05:45:03.172Z,1.67
2022-10-24T05:47:29.942Z,1.20
2022-10-24T05:49:56.712Z,1.40
2022-10-24T05:52:23.364Z,1.50
2022-10-24T05:54:55.847Z,1.45
2022-10-24T05:57:30.089Z,1.20
2022-10-24T05:59:56.728Z,1.20
2022-10-24T06:02:23.397Z,1.50
2022-10-24T06:04:51.021Z,1.50
2022-10-24T06:07:18.694Z,1.77
2022-10-24T06:09:45.476Z,1.33
2022-10-24T06:12:12.536Z,1.73
2022-10-24T06:14:40.533Z,1.77
2022-10-24T06:17:09.155Z,1.65
2022-10-24T06:19:36.801Z,1.30
2022-10-24T06:22:05.016Z,1.38
2022-10-24T06:24:33.694Z,1.23
2022-10-24T06:27:00.573Z,1.85
2022-10-24T06:29:27.213Z,1.65
2022-10-24T06:31:53.949Z,1.63
2022-10-24T06:36:47.207Z,1.73
2022-10-24T06:39:13.796Z,1.75
2022-10-24T06:41:40.433Z,1.63
2022-10-24T06:44:10.876Z,1.48
2022-10-24T06:46:38.016Z,2.10
2022-10-24T06:49:04.735Z,2.70
2022-10-24T06:51:31.591Z,1.73
2022-10-24T06:53:59.466Z,1.30
2022-10-24T06:56:26.331Z,1.45
2022-10-24T06:58:52.945Z,1.98
2022-10-24T07:01:22.295Z,2.13
2022-10-24T07:03:49.363Z,1.55
2022-10-24T07:06:24.706Z,1.63
2022-10-24T07:08:53.187Z,2.15
2022-10-24T07:11:19.886Z,1.77
2022-10-24T07:13:46.640Z,1.40
2022-10-24T07:16:13.375Z,2.35
2022-10-24T07:18:40.596Z,1.77
2022-10-24T07:21:11.270Z,1.38
2022-10-24T07:23:38.044Z,1.40
2022-10-24T07:26:07.535Z,1.50
2022-10-24T07:28:35.397Z,1.63
2022-10-24T07:31:02.302Z,2.55
2022-10-24T07:33:29.692Z,1.38
2022-10-24T07:35:56.667Z,1.50
2022-10-24T07:38:23.791Z,0.98
2022-10-24T07:40:50.496Z,1.58
2022-10-24T07:43:17.844Z,1.48
2022-10-24T07:45:49.010Z,1.40
2022-10-24T07:48:19.491Z,1.80
2022-10-24T07:50:47.298Z,1.10
2022-10-24T07:53:14.803Z,1.65
2022-10-24T07:55:43.027Z,1.42
2022-10-24T07:58:10.735Z,1.92
2022-10-24T08:00:41.184Z,2.67
2022-10-24T08:03:10.776Z,1.42
2022-10-24T08:05:42.739Z,1.30
2022-10-24T08:08:30.863Z,1.45
2022-10-24T08:10:56.561Z,1.63
2022-10-24T08:13:23.437Z,1.52
2022-10-24T08:15:50.053Z,1.70
2022-10-24T08:18:17.653Z,1.10
2022-10-24T08:20:44.295Z,1.55
2022-10-24T08:23:10.863Z,1.20
2022-10-24T08:25:41.900Z,0.73
2022-10-24T08:28:09.267Z,1.33
2022-10-24T08:30:35.977Z,1.20
2022-10-24T08:33:02.625Z,1.60
2022-10-24T08:35:29.223Z,1.40
2022-10-24T08:37:55.847Z,1.33
2022-10-24T08:40:24.513Z,1.63
2022-10-24T08:42:51.138Z,1.88
2022-10-24T08:45:29.397Z,1.60
2022-10-24T08:48:08.416Z,1.38
2022-10-24T08:50:36.701Z,1.83
2022-10-24T08:53:13.333Z,1.23
2022-10-24T08:55:50.315Z,1.48
2022-10-24T08:58:25.690Z,1.35
2022-10-24T09:00:55.189Z,1.67
2022-10-24T09:03:55.523Z,1.60
2022-10-24T09:06:28.168Z,2.05
2022-10-24T09:08:56.795Z,1.55
2022-10-24T09:11:49.724Z,1.88
2022-10-24T09:14:27.239Z,1.70
2022-10-24T09:17:15.491Z,2.17
2022-10-24T09:19:48.803Z,1.67
2022-10-24T09:22:15.708Z,1.75
2022-10-24T09:25:08.178Z,1.75
2022-10-24T09:27:37.392Z,2.45
2022-10-24T09:30:07.386Z,1.50
2022-10-24T09:32:35.891Z,1.30
2022-10-24T09:35:11.879Z,1.90
2022-10-24T09:37:46.257Z,2.00
2022-10-24T09:40:17.189Z,1.90
2022-10-24T09:42:52.862Z,1.17
2022-10-24T09:45:33.666Z,1.52
2022-10-24T09:48:04.458Z,1.50
2022-10-24T09:50:34.184Z,1.55
2022-10-24T09:53:03.181Z,1.02
2022-10-24T09:55:31.216Z,1.95
2022-10-24T09:58:03.893Z,1.85
2022-10-24T10:00:36.097Z,1.00
2022-10-24T10:03:08.674Z,1.40
2022-10-24T10:05:49.391Z,1.48
2022-10-24T10:08:25.265Z,0.90
2022-10-24T10:11:13.476Z,2.58
2022-10-24T10:13:54.051Z,1.98
2022-10-24T10:16:33.809Z,1.38
2022-10-24T10:19:21.697Z,1.20
2022-10-24T10:22:04.396Z,1.55
2022-10-24T10:24:48.593Z,1.05
2022-10-24T10:27:36.280Z,1.00
2022-10-24T10:30:11.859Z,1.55
2022-10-24T10:33:00.888Z,1.35
2022-10-24T10:36:00.164Z,1.50
2022-10-24T10:38:48.403Z,2.58
2022-10-24T10:41:38.925Z,1.67
2022-10-24T10:44:32.456Z,1.48
2022-10-24T10:47:09.238Z,1.65
2022-10-24T10:49:42.201Z,1.60
2022-10-24T10:52:27.301Z,1.85
2022-10-24T10:57:53.579Z,1.55
2022-10-24T11:00:46.173Z,1.52
2022-10-24T11:03:54.426Z,1.42
2022-10-24T11:06:38.299Z,1.52
2022-10-24T11:09:12.870Z,1.67
2022-10-24T11:11:45.258Z,2.10
2022-10-24T11:14:20.915Z,1.52
2022-10-24T11:16:48.841Z,2.03
2022-10-24T11:19:33.910Z,1.40
2022-10-24T11:24:40.604Z,2.17
2022-10-24T11:27:24.153Z,2.15
2022-10-24T11:29:56.792Z,1.50
2022-10-24T11:32:47.764Z,1.50
2022-10-24T11:35:20.773Z,1.83
2022-10-24T11:37:52.639Z,2.20
2022-10-24T11:40:22.064Z,1.45
2022-10-24T11:42:55.957Z,2.08
2022-10-24T11:45:54.105Z,1.33
2022-10-24T11:48:44.930Z,1.65
2022-10-24T11:51:38.732Z,1.60
2022-10-24T11:54:15.333Z,1.55
2022-10-24T11:56:51.696Z,1.02
2022-10-24T11:59:24.156Z,1.70
2022-10-24T12:02:28.792Z,2.00
2022-10-24T12:08:26.523Z,1.30
2022-10-24T12:10:54.465Z,2.00
2022-10-24T12:13:51.549Z,1.88
2022-10-24T12:16:27.555Z,1.65
2022-10-24T12:19:12.836Z,1.98
2022-10-24T12:21:46.410Z,1.88
2022-10-24T12:24:32.931Z,2.42
2022-10-24T12:27:06.951Z,1.83
2022-10-24T12:29:36.234Z,2.72
2022-10-24T12:32:23.292Z,2.28
2022-10-24T12:35:29.029Z,1.73
2022-10-24T12:37:49.120Z,1.63
2022-10-24T12:40:52.896Z,0.88
2022-10-24T12:43:33.980Z,1.40
2022-10-24T12:46:21.753Z,1.77
2022-10-24T12:48:59.326Z,1.58
2022-10-24T12:51:29.798Z,1.88
2022-10-24T12:54:12.983Z,1.70
2022-10-24T12:56:52.181Z,1.55
2022-10-24T12:59:30.087Z,1.20
2022-10-24T13:02:21.226Z,1.67
2022-10-24T13:05:22.206Z,1.20
2022-10-24T13:08:07.624Z,2.70
2022-10-24T13:10:46.957Z,1.67
2022-10-24T13:13:30.717Z,1.98
2022-10-24T13:16:06.943Z,1.63
2022-10-24T13:19:04.126Z,1.58
2022-10-24T13:24:21.493Z,1.55
2022-10-24T13:27:12.867Z,1.60
2022-10-24T13:29:39.801Z,1.52
2022-10-24T13:32:06.397Z,1.95
2022-10-24T13:34:54.398Z,2.10
2022-10-24T13:37:25.818Z,1.52
2022-10-24T13:39:57.850Z,1.88
2022-10-24T13:42:55.393Z,1.05
2022-10-24T13:45:41.181Z,1.40
2022-10-24T13:48:17.231Z,1.77
2022-10-24T13:50:52.103Z,1.92
2022-10-24T13:53:30.275Z,2.08
2022-10-24T13:56:00.311Z,2.00
2022-10-24T13:58:27.190Z,1.75
2022-10-24T14:01:04.801Z,1.92
2022-10-24T14:03:33.624Z,2.00
2022-10-24T14:06:03.356Z,1.48
2022-10-24T14:08:39.025Z,2.00
2022-10-24T14:11:08.711Z,1.38
2022-10-24T14:14:02.637Z,1.55
2022-10-24T14:16:35.051Z,1.80
2022-10-24T14:19:30.971Z,1.45
2022-10-24T14:21:59.420Z,1.60
2022-10-24T14:24:31.000Z,1.50
2022-10-24T14:27:02.271Z,1.65
2022-10-24T14:29:34.009Z,1.45
2022-10-24T14:32:03.269Z,1.20
2022-10-24T14:34:35.979Z,1.10
2022-10-24T14:37:14.981Z,2.22
2022-10-24T14:39:44.781Z,1.10
2022-10-24T14:42:18.336Z,1.45
2022-10-24T14:44:46.836Z,1.15
2022-10-24T14:47:30.425Z,1.20
2022-10-24T14:49:57.121Z,1.17
2022-10-24T14:52:36.762Z,1.40
2022-10-24T14:55:17.818Z,0.93
2022-10-24T14:57:49.774Z,1.33
2022-10-24T15:00:22.489Z,1.38
2022-10-24T15:02:51.248Z,1.65
2022-10-24T15:05:20.727Z,2.17
2022-10-24T15:08:16.791Z,1.52
2022-10-24T15:10:41.488Z,1.40
2022-10-24T15:13:21.580Z,1.58
2022-10-24T15:15:57.669Z,1.60
2022-10-24T15:18:30.616Z,1.90
2022-10-24T15:21:03.922Z,1.52
2022-10-24T15:23:51.036Z,1.33
2022-10-24T15:26:44.537Z,1.80
2022-10-24T15:29:14.453Z,1.80
2022-10-24T15:31:46.502Z,1.50
2022-10-24T15:34:19.158Z,2.00
2022-10-24T15:36:48.287Z,1.80
2022-10-24T15:39:18.202Z,2.35
2022-10-24T15:41:44.893Z,2.30
2022-10-24T15:44:19.647Z,1.42
2022-10-24T15:49:13.441Z,1.60
2022-10-24T15:51:45.930Z,2.20
2022-10-24T15:54:20.239Z,2.05
2022-10-24T15:56:47.236Z,1.70
2022-10-24T15:59:14.395Z,1.80
2022-10-24T16:01:47.288Z,2.50
2022-10-24T16:04:15.170Z,2.03
2022-10-24T16:06:41.841Z,2.08
2022-10-24T16:09:23.313Z,1.67
2022-10-24T16:11:49.991Z,2.28
2022-10-24T16:14:19.191Z,1.77
2022-10-24T16:16:46.608Z,1.40
2022-10-24T16:19:13.763Z,1.73
2022-10-24T16:21:41.777Z,1.50
2022-10-24T16:24:10.415Z,2.45
2022-10-24T16:26:37.578Z,2.05
2022-10-24T16:29:04.984Z,2.00
2022-10-24T16:31:32.057Z,1.88
2022-10-24T16:33:59.260Z,1.55
2022-10-24T16:36:26.264Z,2.05
2022-10-24T16:38:53.282Z,2.20
2022-10-24T16:41:25.964Z,2.10
2022-10-24T16:43:57.400Z,3.83
2022-10-24T16:46:26.042Z,2.92
2022-10-24T16:48:53.653Z,2.90
2022-10-24T16:51:25.533Z,2.72
2022-10-24T16:53:52.119Z,2.22
2022-10-24T16:56:21.698Z,2.88
2022-10-24T16:58:48.320Z,3.40
2022-10-24T17:01:17.275Z,3.95
2022-10-24T17:03:49.212Z,2.97
2022-10-24T17:06:16.021Z,3.03
2022-10-24T17:08:42.684Z,3.92
2022-10-24T17:11:32.109Z,3.05
2022-10-24T17:13:57.992Z,3.17
2022-10-24T17:16:24.878Z,2.50
2022-10-24T17:19:05.622Z,3.10
2022-10-24T17:21:41.361Z,3.30
2022-10-24T17:24:11.648Z,3.08
2022-10-24T17:26:40.324Z,4.18
2022-10-24T17:29:08.404Z,4.18
2022-10-24T17:31:35.495Z,4.28
2022-10-24T17:34:02.332Z,3.53
2022-10-24T17:36:37.364Z,3.60
2022-10-24T17:39:17.603Z,4.00
2022-10-24T17:41:44.845Z,3.85
2022-10-24T17:44:16.580Z,3.60
2022-10-24T17:46:44.268Z,4.05
2022-10-24T17:49:16.597Z,5.00
2022-10-24T17:51:47.347Z,3.35
2022-10-24T17:54:14.848Z,4.10
2022-10-24T17:56:42.767Z,5.30
2022-10-24T17:59:09.944Z,5.40
2022-10-24T18:01:36.836Z,4.40
2022-10-24T18:04:04.295Z,3.42
2022-10-24T18:06:31.248Z,3.17
2022-10-24T18:08:57.988Z,2.70
2022-10-24T18:11:24.744Z,2.70
2022-10-24T18:13:51.402Z,2.35
2022-10-24T18:16:18.969Z,2.78
2022-10-24T18:18:47.063Z,3.00
2022-10-24T18:23:46.558Z,2.10
2022-10-24T18:26:17.809Z,2.50
2022-10-24T18:28:46.448Z,2.40
2022-10-24T18:31:25.636Z,2.45
2022-10-24T18:33:52.944Z,2.58
2022-10-24T18:36:24.316Z,2.45
2022-10-24T18:38:53.894Z,2.20
2022-10-24T18:41:58.546Z,1.83
2022-10-24T18:44:26.805Z,2.47
2022-10-24T18:46:56.000Z,2.10
2022-10-24T18:49:22.929Z,2.50
2022-10-24T18:52:03.649Z,2.40
2022-10-24T18:54:30.674Z,2.70
2022-10-24T18:56:57.565Z,1.65
2022-10-24T18:59:24.309Z,2.28
2022-10-24T19:01:54.221Z,2.78
2022-10-24T19:04:24.175Z,2.35
2022-10-24T19:06:54.932Z,2.72
2022-10-24T19:09:23.976Z,2.60
2022-10-24T19:11:52.437Z,2.75
2022-10-24T19:14:20.559Z,2.60
2022-10-24T19:16:49.433Z,3.30
2022-10-24T19:19:25.051Z,2.78
2022-10-24T19:21:52.208Z,2.83
2022-10-24T19:24:19.285Z,2.42
2022-10-24T19:26:46.328Z,3.00
2022-10-24T19:29:13.084Z,2.45
2022-10-24T19:31:39.909Z,2.65
2022-10-24T19:34:06.483Z,2.85
2022-10-24T19:36:34.082Z,3.13
2022-10-24T19:39:00.844Z,2.83
2022-10-24T19:41:27.820Z,2.75
2022-10-24T19:43:55.106Z,2.22
2022-10-24T19:46:21.917Z,2.65
2022-10-24T19:48:49.454Z,2.83
2022-10-24T19:51:17.507Z,1.83
2022-10-24T19:53:44.606Z,2.33
2022-10-24T19:56:14.572Z,1.83
2022-10-24T19:58:42.133Z,2.17
2022-10-24T20:01:10.511Z,2.60
2022-10-24T20:03:38.258Z,2.20
2022-10-24T20:06:08.412Z,2.10
2022-10-24T20:08:35.481Z,2.38
2022-10-24T20:11:09.422Z,2.00
2022-10-24T20:13:36.121Z,1.33
2022-10-24T20:16:05.833Z,2.33
2022-10-24T20:18:34.639Z,1.70
2022-10-24T20:21:06.308Z,1.35
2022-10-24T20:23:34.064Z,1.60
2022-10-24T20:26:06.573Z,2.40
2022-10-24T20:28:39.068Z,1.70
2022-10-24T20:31:06.875Z,2.25
2022-10-24T20:33:34.027Z,2.10
2022-10-24T20:36:01.923Z,1.88
2022-10-24T20:38:29.048Z,2.30
2022-10-24T20:41:01.212Z,2.50
2022-10-24T20:43:28.493Z,2.15
2022-10-24T20:45:55.121Z,2.33
2022-10-24T20:48:21.747Z,2.10
2022-10-24T20:50:48.435Z,1.88
2022-10-24T20:53:16.141Z,2.78
2022-10-24T20:55:44.773Z,3.17
2022-10-24T20:58:15.755Z,2.10
2022-10-24T21:00:42.392Z,3.05
2022-10-24T21:03:12.020Z,2.42
2022-10-24T21:05:38.793Z,2.28
2022-10-24T21:08:05.633Z,2.53
2022-10-24T21:10:32.416Z,2.58
2022-10-24T21:12:59.227Z,1.65
2022-10-24T21:15:27.026Z,2.53
2022-10-24T21:17:55.705Z,2.60
2022-10-24T21:20:22.299Z,2.67
2022-10-24T21:22:49.004Z,1.58
2022-10-24T21:25:15.721Z,2.35
2022-10-24T21:27:42.280Z,2.47
2022-10-24T21:30:14.739Z,2.15
2022-10-24T21:32:42.015Z,2.45
2022-10-24T21:35:08.824Z,2.17
2022-10-24T21:37:35.563Z,1.95
2022-10-24T21:40:02.178Z,1.90
2022-10-24T21:42:32.952Z,1.60
2022-10-24T21:44:59.588Z,1.52
2022-10-24T21:47:27.381Z,2.38
2022-10-24T21:49:54.009Z,2.20
2022-10-24T21:52:20.624Z,2.40
2022-10-24T21:54:47.241Z,2.47
2022-10-24T21:57:13.795Z,2.47
2022-10-24T21:59:40.349Z,2.63
2022-10-24T22:02:07.017Z,1.98
2022-10-24T22:04:33.769Z,1.65
2022-10-24T22:07:00.441Z,3.40
2022-10-24T22:09:27.079Z,2.58
2022-10-24T22:11:57.783Z,2.38
2022-10-24T22:14:24.890Z,2.50
2022-10-24T22:16:52.106Z,3.20
2022-10-24T22:19:19.156Z,2.95
2022-10-24T22:21:48.586Z,3.67
2022-10-24T22:24:21.322Z,2.83
2022-10-24T22:26:49.004Z,3.17
2022-10-24T22:29:21.546Z,3.00
2022-10-24T22:31:48.733Z,3.67
2022-10-24T22:34:24.202Z,3.03
2022-10-24T22:37:03.081Z,2.10
2022-10-24T22:39:29.876Z,3.47
2022-10-24T22:41:56.825Z,3.38
2022-10-24T22:44:24.016Z,4.43
2022-10-24T22:47:11.762Z,3.92
2022-10-24T22:50:03.734Z,3.88
2022-10-24T22:52:30.466Z,4.13
2022-10-24T22:54:57.602Z,3.92
2022-10-24T22:57:24.987Z,3.88
2022-10-24T22:59:51.824Z,3.38
2022-10-24T23:02:36.354Z,4.53
2022-10-24T23:05:13.192Z,4.35
2022-10-24T23:08:00.093Z,3.88
2022-10-24T23:10:26.714Z,1.95
2022-10-24T23:12:53.612Z,3.47
2022-10-24T23:15:21.495Z,3.40
2022-10-24T23:17:49.396Z,3.92
2022-10-24T23:20:39.123Z,4.35
2022-10-24T23:23:17.223Z,3.38
2022-10-24T23:25:53.681Z,3.78
2022-10-24T23:28:48.224Z,3.35
2022-10-24T23:31:14.976Z,4.20
2022-10-24T23:33:41.945Z,3.70
2022-10-24T23:36:20.642Z,3.22
2022-10-24T23:38:48.171Z,2.05
2022-10-24T23:41:15.125Z,3.35
2022-10-24T23:43:42.043Z,2.78
2022-10-24T23:46:31.251Z,2.70
2022-10-24T23:49:35.305Z,1.75
2022-10-24T23:52:15.262Z,2.60
2022-10-24T23:54:48.409Z,2.45
2022-10-24T23:57:18.452Z,2.80
2022-10-24T23:59:45.343Z,2.95
